Time;durP1;ratioP1;P1;durP2;ratioP2;P2;SDS_P1;SDS_P2;PMS_P1;PMS_P2;Temp;Humidity;BMP_temperature;BMP_pressure;BME280_temperature;BME280_humidity;BME280_pressure;Samples;Min_cycle;Max_cycle;Signal;HPM_P1;HPM_P2
2021/07/05 00:00:45;;;;;;;3.28;2.35;;;;;;;0.01;0.00;59042.03;10315432;28;20067;-60
2021/07/05 00:05:43;;;;;;;3.40;2.30;;;;;;;0.01;0.00;59042.03;10318449;28;20490;-60
2021/07/05 00:10:42;;;;;;;2.08;1.88;;;;;;;0.01;0.00;59042.03;10322969;28;20072;-60
2021/07/05 00:15:41;;;;;;;3.17;1.70;;;;;;;0.01;0.00;59042.03;10324028;28;20080;-59
2021/07/05 00:20:44;;;;;;;4.30;2.13;;;;;;;0.01;0.00;59042.03;10323840;28;20421;-58
2021/07/05 00:25:44;;;;;;;5.13;2.45;;;;;;;0.01;0.00;59042.03;10305169;28;20036;-59
2021/07/05 00:30:43;;;;;;;2.33;2.03;;;;;;;0.01;0.00;59042.03;10322978;28;20520;-59
2021/07/05 00:35:43;;;;;;;2.53;2.33;;;;;;;0.01;0.00;59042.03;10323484;28;20519;-58
2021/07/05 00:40:45;;;;;;;2.47;2.10;;;;;;;0.01;0.00;59042.03;10323323;28;20044;-59
2021/07/05 00:45:44;;;;;;;5.43;3.17;;;;;;;0.01;0.00;59042.03;10321587;28;20298;-60
2021/07/05 00:50:44;;;;;;;4.43;3.05;;;;;;;0.01;0.00;59042.03;10322529;28;20440;-59
2021/07/05 00:55:43;;;;;;;6.90;3.08;;;;;;;0.01;0.00;59042.03;10322757;28;20079;-59
2021/07/05 01:00:42;;;;;;;4.93;3.40;;;;;;;0.01;0.00;59042.03;10322133;28;20401;-59
2021/07/05 01:05:41;;;;;;;4.10;3.70;;;;;;;0.01;0.00;59042.03;10321894;28;20048;-59
2021/07/05 01:10:41;;;;;;;3.97;3.50;;;;;;;0.01;0.00;59042.03;10321415;28;20044;-59
2021/07/05 01:15:40;;;;;;;3.90;3.50;;;;;;;0.01;0.00;59042.03;10322033;28;20458;-59
2021/07/05 01:20:40;;;;;;;5.95;4.28;;;;;;;0.01;0.00;59042.03;10321781;28;20068;-59
2021/07/05 01:25:42;;;;;;;3.47;3.17;;;;;;;0.01;0.00;59042.03;10321349;28;20505;-59
2021/07/05 01:30:41;;;;;;;5.15;2.92;;;;;;;0.01;0.00;59042.03;10320937;28;20040;-59
2021/07/05 01:35:40;;;;;;;6.60;2.85;;;;;;;0.01;0.00;59042.03;10319957;28;20080;-59
2021/07/05 01:40:42;;;;;;;3.70;3.35;;;;;;;0.01;0.00;59042.03;10302187;28;20045;-59
2021/07/05 01:45:41;;;;;;;2.97;2.67;;;;;;;0.01;0.00;59042.03;10320694;28;20084;-58
2021/07/05 01:50:40;;;;;;;4.82;2.55;;;;;;;0.01;0.00;59042.03;10320613;28;20048;-59
2021/07/05 01:55:41;;;;;;;3.00;2.63;;;;;;;0.01;0.00;59042.03;10320691;28;20048;-59
2021/07/05 02:00:45;;;;;;;2.83;2.63;;;;;;;0.01;0.00;59042.03;10317706;28;20486;-59
2021/07/05 02:05:45;;;;;;;;;;;;;;;0.01;0.00;59042.03;10320205;28;20067;-53
2021/07/05 02:10:47;;;;;;;4.53;3.35;;;;;;;0.01;0.00;59042.03;10318419;28;19921;-55
2021/07/05 02:15:48;;;;;;;3.25;2.50;;;;;;;0.01;0.00;59042.03;10319068;28;20077;-55
2021/07/05 02:20:47;;;;;;;2.50;2.03;;;;;;;0.01;0.00;59042.03;10319837;28;20056;-56
2021/07/05 02:25:48;;;;;;;2.55;2.22;;;;;;;0.01;0.00;59042.03;10316946;28;20051;-58
2021/07/05 02:30:48;;;;;;;5.40;2.05;;;;;;;0.01;0.00;59042.03;10317820;28;20056;-58
2021/07/05 02:35:47;;;;;;;2.45;2.20;;;;;;;0.01;0.00;59042.03;10318797;28;20091;-56
2021/07/05 02:40:49;;;;;;;4.93;2.20;;;;;;;0.01;0.00;59042.03;10317997;28;20048;-58
2021/07/05 02:45:51;;;;;;;2.72;2.53;;;;;;;0.01;0.00;59042.03;10317117;28;20068;-54
2021/07/05 02:50:54;;;;;;;3.65;2.50;;;;;;;0.01;0.00;59042.03;10299151;28;20464;-57
2021/07/05 02:55:55;;;;;;;4.10;2.85;;;;;;;0.01;0.00;59042.03;10317516;28;20087;-57
2021/07/05 03:00:57;;;;;;;6.32;2.67;;;;;;;0.01;0.00;59042.03;10315023;28;20075;-58
2021/07/05 03:05:56;;;;;;;8.10;4.55;;;;;;;0.01;0.00;59042.03;10317024;28;20052;-57
2021/07/05 03:10:56;;;;;;;4.18;3.58;;;;;;;0.01;0.00;59042.03;10312797;28;20298;-57
2021/07/05 03:15:55;;;;;;;5.53;4.00;;;;;;;0.01;0.00;59042.03;10314173;28;20064;-57
2021/07/05 03:20:55;;;;;;;5.72;3.88;;;;;;;0.01;0.00;59042.03;10314308;28;20064;-52
2021/07/05 03:25:56;;;;;;;6.80;4.35;;;;;;;0.01;0.00;59042.03;10291898;28;20076;-57
2021/07/05 03:30:55;;;;;;;5.10;4.70;;;;;;;0.01;0.00;59042.03;10315290;28;20048;-57
2021/07/05 03:35:54;;;;;;;4.95;4.45;;;;;;;0.01;0.00;59042.03;10316321;28;20095;-57
2021/07/05 03:40:53;;;;;;;4.78;4.30;;;;;;;0.01;0.00;59042.03;10285299;28;20073;-58
2021/07/05 03:45:53;;;;;;;4.75;4.35;;;;;;;0.01;0.00;59042.03;10272168;28;20085;-57
2021/07/05 03:50:52;;;;;;;5.47;4.80;;;;;;;0.01;0.00;59042.03;10272947;28;20084;-58
2021/07/05 03:55:51;;;;;;;4.80;4.40;;;;;;;0.01;0.00;59042.03;10274494;28;20093;-56
2021/07/05 04:00:49;;;;;;;5.35;4.85;;;;;;;0.01;0.00;59042.03;10275326;28;20048;-57
2021/07/05 04:05:51;;;;;;;5.45;4.45;;;;;;;0.01;0.00;59042.03;10274484;28;20560;-57
2021/07/05 04:10:50;;;;;;;7.78;5.80;;;;;;;0.01;0.00;59042.03;10275362;28;20056;-58
2021/07/05 04:15:49;;;;;;;9.25;5.90;;;;;;;0.01;0.00;59042.03;10274481;28;20095;-57
2021/07/05 04:20:50;;;;;;;6.72;5.18;;;;;;;0.01;0.00;59042.03;10274391;28;20049;-58
2021/07/05 04:25:48;;;;;;;8.95;5.47;;;;;;;0.01;0.00;59042.03;10274227;28;20083;-58
2021/07/05 04:30:47;;;;;;;12.65;6.00;;;;;;;0.01;0.00;59042.03;10274652;28;20040;-57
2021/07/05 04:35:46;;;;;;;5.75;4.65;;;;;;;0.01;0.00;59042.03;10274090;28;20085;-58
2021/07/05 04:40:48;;;;;;;13.15;6.05;;;;;;;0.01;0.00;59042.03;10273345;28;20183;-57
2021/07/05 04:45:48;;;;;;;5.47;4.78;;;;;;;0.01;0.00;59042.03;10271999;28;20093;-58
2021/07/05 04:50:47;;;;;;;7.85;5.20;;;;;;;0.01;0.00;59042.03;10273514;28;20045;-58
2021/07/05 04:55:47;;;;;;;9.13;4.90;;;;;;;0.01;0.00;59042.03;10280576;28;20092;-58
2021/07/05 05:00:46;;;;;;;9.07;4.60;;;;;;;0.01;0.00;59042.03;10281081;28;20512;-58
2021/07/05 05:05:45;;;;;;;7.82;5.32;;;;;;;0.01;0.00;59042.03;10280973;28;20052;-58
2021/07/05 05:10:44;;;;;;;6.63;5.30;;;;;;;0.01;0.00;59042.03;10281508;28;20069;-58
2021/07/05 05:15:44;;;;;;;8.60;5.13;;;;;;;0.01;0.00;59042.03;10280465;28;20498;-58
2021/07/05 05:20:43;;;;;;;7.30;6.10;;;;;;;0.01;0.00;59042.03;10280411;28;20056;-57
2021/07/05 05:25:42;;;;;;;10.57;6.45;;;;;;;0.01;0.00;59042.03;10279936;28;20055;-58
2021/07/05 05:30:41;;;;;;;8.23;6.03;;;;;;;0.01;0.00;59042.03;10281017;28;20052;-57
2021/07/05 05:35:41;;;;;;;14.95;6.85;;;;;;;0.01;0.00;59042.03;10279600;28;20076;-57
2021/07/05 05:40:40;;;;;;;8.95;6.97;;;;;;;0.01;0.00;59042.03;10280132;28;20063;-57
2021/07/05 05:45:39;;;;;;;9.02;7.13;;;;;;;0.01;0.00;59042.03;10279517;28;20056;-55
2021/07/05 05:50:38;;;;;;;8.45;5.80;;;;;;;0.01;0.00;59042.03;10279730;28;20053;-57
2021/07/05 05:55:43;;;;;;;10.40;6.47;;;;;;;0.01;0.00;59042.03;10279530;28;20080;-58
2021/07/05 06:00:42;;;;;;;10.95;6.45;;;;;;;0.01;0.00;59042.03;10279824;28;20048;-56
2021/07/05 06:05:41;;;;;;;10.75;6.68;;;;;;;0.01;0.00;59042.03;10277947;28;20425;-58
2021/07/05 06:10:42;;;;;;;7.18;6.47;;;;;;;0.01;0.00;59042.03;10278418;28;20041;-57
2021/07/05 06:15:41;;;;;;;7.97;6.60;;;;;;;0.01;0.00;59042.03;10278094;28;20088;-58
2021/07/05 06:20:40;;;;;;;12.00;5.68;;;;;;;0.01;0.00;59042.03;10277221;28;20045;-58
2021/07/05 06:25:39;;;;;;;7.75;5.50;;;;;;;0.01;0.00;59042.03;10278199;28;20096;-57
2021/07/05 06:30:39;;;;;;;6.07;5.43;;;;;;;0.01;0.00;59042.03;10278783;28;20053;-59
2021/07/05 06:35:38;;;;;;;8.98;6.25;;;;;;;0.01;0.00;59042.03;10277889;28;20084;-58
2021/07/05 06:40:37;;;;;;;9.48;5.97;;;;;;;0.01;0.00;59042.03;10277986;28;20041;-57
2021/07/05 06:45:36;;;;;;;8.70;4.82;;;;;;;0.01;0.00;59042.03;10276469;28;20438;-58
2021/07/05 06:50:37;;;;;;;6.80;4.40;;;;;;;0.01;0.00;59042.03;10277229;28;20064;-56
2021/07/05 06:55:36;;;;;;;8.35;4.53;;;;;;;0.01;0.00;59042.03;10277405;28;20084;-58
2021/07/05 07:00:35;;;;;;;8.55;5.50;;;;;;;0.01;0.00;59042.03;10277108;28;20091;-58
2021/07/05 07:05:35;;;;;;;9.50;4.80;;;;;;;0.01;0.00;59042.03;10277342;28;20079;-58
2021/07/05 07:10:35;;;;;;;5.97;4.80;;;;;;;0.01;0.00;59042.03;10276726;28;20044;-57
2021/07/05 07:15:36;;;;;;;9.23;4.50;;;;;;;0.01;0.00;59042.03;10276894;28;20045;-58
2021/07/05 07:20:34;;;;;;;6.13;5.13;;;;;;;0.01;0.00;59042.03;10277091;28;20481;-58
2021/07/05 07:25:35;;;;;;;6.22;5.15;;;;;;;0.01;0.00;59042.03;10276046;28;20083;-58
2021/07/05 07:30:34;;;;;;;9.73;5.28;;;;;;;0.01;0.00;59042.03;10275301;28;20049;-56
2021/07/05 07:35:33;;;;;;;9.20;5.35;;;;;;;0.01;0.00;59042.03;10275697;28;20049;-57
2021/07/05 07:40:34;;;;;;;6.55;5.78;;;;;;;0.01;0.00;59042.03;10275684;28;20080;-58
2021/07/05 07:45:34;;;;;;;8.32;5.63;;;;;;;0.01;0.00;59042.03;10274596;28;20076;-58
2021/07/05 07:50:33;;;;;;;12.43;5.25;;;;;;;0.01;0.00;59042.03;10276155;28;20041;-57
2021/07/05 07:55:33;;;;;;;7.68;4.82;;;;;;;0.01;0.00;59042.03;10274966;28;20083;-58
2021/07/05 08:00:33;;;;;;;5.45;3.42;;;;;;;0.01;0.00;59042.03;10274863;28;20163;-58
2021/07/05 08:05:32;;;;;;;7.60;4.80;;;;;;;0.01;0.00;59042.03;10275473;28;20041;-58
2021/07/05 08:10:31;;;;;;;4.40;3.90;;;;;;;0.01;0.00;59042.03;10275237;28;20463;-58
2021/07/05 08:15:30;;;;;;;6.43;4.78;;;;;;;0.01;0.00;59042.03;10275752;28;20037;-58
2021/07/05 08:20:31;;;;;;;8.23;4.72;;;;;;;0.01;0.00;59042.03;10275108;28;20076;-55
2021/07/05 08:25:30;;;;;;;8.38;5.22;;;;;;;0.01;0.00;59042.03;10275462;28;20075;-56
2021/07/05 08:30:29;;;;;;;7.28;4.60;;;;;;;0.01;0.00;59042.03;10282278;28;20079;-56
2021/07/05 08:35:28;;;;;;;18.02;11.15;;;;;;;0.01;0.00;59042.03;10264685;28;20044;-57
2021/07/05 08:40:28;;;;;;;8.57;4.22;;;;;;;0.01;0.00;59042.03;10282746;28;20152;-56
2021/07/05 08:45:27;;;;;;;5.90;4.53;;;;;;;0.01;0.00;59042.03;10281189;28;20060;-55
2021/07/05 08:50:28;;;;;;;12.55;5.22;;;;;;;0.01;0.00;59042.03;10282779;28;20532;-57
2021/07/05 08:55:30;;;;;;;5.47;3.70;;;;;;;0.01;0.00;59042.03;10281633;28;20052;-57
2021/07/05 09:00:30;;;;;;;5.88;4.93;;;;;;;0.01;0.00;59042.03;10281172;28;20080;-56
2021/07/05 09:05:29;;;;;;;6.07;5.47;;;;;;;0.01;0.00;59042.03;10280914;28;20041;-58
2021/07/05 09:10:40;;;;;;;10.68;4.65;;;;;;;0.01;0.00;59042.03;10281619;28;20091;-57
2021/07/05 09:15:42;;;;;;;6.05;4.28;;;;;;;0.01;0.00;59042.03;10281192;28;20045;-58
2021/07/05 09:20:40;;;;;;;5.13;3.80;;;;;;;0.01;0.00;59042.03;10281333;28;20075;-57
2021/07/05 09:25:42;;;;;;;4.95;3.80;;;;;;;0.01;0.00;59042.03;10279859;28;20053;-57
2021/07/05 09:30:44;;;;;;;5.57;4.03;;;;;;;0.01;0.00;59042.03;10281263;28;20478;-57
2021/07/05 09:35:43;;;;;;;3.45;3.15;;;;;;;0.01;0.00;59042.03;10280173;28;20047;-57
2021/07/05 09:40:43;;;;;;;3.67;2.92;;;;;;;0.01;0.00;59042.03;10278401;28;20083;-58
2021/07/05 09:45:42;;;;;;;6.22;2.88;;;;;;;0.01;0.00;59042.03;10279370;28;20053;-57
2021/07/05 09:50:41;;;;;;;4.70;3.97;;;;;;;0.01;0.00;59042.03;10279387;28;20398;-57
2021/07/05 09:55:40;;;;;;;3.40;3.10;;;;;;;0.01;0.00;59042.03;10279989;28;20422;-57
2021/07/05 10:00:40;;;;;;;3.70;2.80;;;;;;;0.01;0.00;59042.03;10279511;28;20085;-57
2021/07/05 10:05:43;;;;;;;6.25;3.83;;;;;;;0.01;0.00;59042.03;10278783;28;20517;-58
2021/07/05 10:10:43;;;;;;;4.85;4.03;;;;;;;0.01;0.00;59042.03;10279391;28;20048;-58
2021/07/05 10:15:46;;;;;;;3.72;3.42;;;;;;;0.01;0.00;59042.03;10279402;28;20044;-58
2021/07/05 10:20:47;;;;;;;4.60;3.45;;;;;;;0.01;0.00;59042.03;10277939;28;20080;-57
2021/07/05 10:25:48;;;;;;;6.50;3.63;;;;;;;0.01;0.00;59042.03;10278333;28;20083;-57
2021/07/05 10:30:51;;;;;;;6.85;3.78;;;;;;;0.01;0.00;59042.03;10278063;28;20065;-58
2021/07/05 10:35:52;;;;;;;9.20;4.43;;;;;;;0.01;0.00;59042.03;10277502;28;20147;-57
2021/07/05 10:40:53;;;;;;;7.40;3.72;;;;;;;0.01;0.00;59042.03;10277621;28;20072;-58
2021/07/05 10:45:56;;;;;;;8.13;4.32;;;;;;;0.01;0.00;59042.03;10276876;28;20060;-58
2021/07/05 10:50:56;;;;;;;9.73;4.63;;;;;;;0.01;0.00;59042.03;10276858;28;20610;-58
2021/07/05 10:55:55;;;;;;;8.18;4.00;;;;;;;0.01;0.00;59042.03;10277345;28;20513;-58
2021/07/05 11:00:57;;;;;;;6.25;3.65;;;;;;;0.01;0.00;59042.03;10277522;28;20102;-58
2021/07/05 11:05:56;;;;;;;7.47;3.58;;;;;;;0.01;0.00;59042.03;10276721;28;20486;-58
2021/07/05 11:11:22;;;;;;;5.97;3.55;;;;;;;0.01;0.00;59042.03;10276199;28;20554;-59
2021/07/05 11:16:22;;;;;;;6.25;3.05;;;;;;;0.01;0.00;59042.03;10276871;28;20049;-58
2021/07/05 11:21:55;;;;;;;13.27;4.75;;;;;;;0.01;0.00;59042.03;10276753;28;20095;-58
2021/07/05 11:26:54;;;;;;;7.05;3.58;;;;;;;0.01;0.00;59042.03;10273037;28;20048;-58
2021/07/05 11:31:56;;;;;;;6.80;4.05;;;;;;;0.01;0.00;59042.03;10276006;28;20059;-58
2021/07/05 11:37:31;;;;;;;4.65;3.78;;;;;;;0.01;0.00;59042.03;10276184;28;20155;-59
2021/07/05 11:42:58;;;;;;;6.22;2.90;;;;;;;0.01;0.00;59042.03;10275722;28;20096;-58
2021/07/05 11:47:59;;;;;;;8.13;3.35;;;;;;;0.01;0.00;59042.03;10267259;28;20051;-58
2021/07/05 11:52:59;;;;;;;3.75;2.72;;;;;;;0.01;0.00;59042.03;10274486;28;20560;-59
2021/07/05 11:58:01;;;;;;;5.03;3.47;;;;;;;0.01;0.00;59042.03;10275093;28;20083;-59
2021/07/05 12:03:05;;;;;;;12.15;3.25;;;;;;;0.01;0.00;59042.03;10274128;28;20049;-57
2021/07/05 12:08:06;;;;;;;4.72;3.65;;;;;;;0.01;0.00;59042.03;10274021;28;20084;-58
2021/07/05 12:13:15;;;;;;;7.18;3.40;;;;;;;0.01;0.00;59042.03;10275007;28;20057;-58
2021/07/05 12:18:16;;;;;;;4.35;3.00;;;;;;;0.01;0.00;59042.03;10274564;28;20513;-56
2021/07/05 12:23:15;;;;;;;6.38;2.63;;;;;;;0.01;0.00;59042.03;10274130;28;20048;-58
2021/07/05 12:28:16;;;;;;;3.17;2.88;;;;;;;0.01;0.00;59042.03;10256958;28;20051;-57
2021/07/05 12:33:17;;;;;;;8.95;3.58;;;;;;;0.01;0.00;59042.03;10274216;28;20048;-56
2021/07/05 12:38:17;;;;;;;4.85;3.08;;;;;;;0.01;0.00;59042.03;10274230;28;20505;-58
2021/07/05 12:43:16;;;;;;;3.58;2.90;;;;;;;0.01;0.00;59042.03;10273840;28;20049;-56
2021/07/05 12:48:20;;;;;;;5.22;3.00;;;;;;;0.01;0.00;59042.03;10273970;28;20049;-58
2021/07/05 12:53:19;;;;;;;;;;;;;;;0.01;0.00;59042.03;10274750;28;20049;-58
2021/07/05 12:58:34;;;;;;;8.00;3.10;;;;;;;0.01;0.00;59042.03;10273423;28;20341;-58
2021/07/05 13:03:35;;;;;;;5.03;2.88;;;;;;;0.01;0.00;59042.03;10273921;28;20041;-58
2021/07/05 13:08:34;;;;;;;4.05;3.35;;;;;;;0.01;0.00;59042.03;10273584;28;20376;-57
2021/07/05 13:13:36;;;;;;;6.20;3.38;;;;;;;0.01;0.00;59042.03;10277187;28;20045;-58
2021/07/05 13:18:37;;;;;;;8.75;3.85;;;;;;;0.01;0.00;59042.03;10280963;28;20482;-57
2021/07/05 13:23:40;;;;;;;7.20;3.80;;;;;;;0.01;0.00;59042.03;10280138;28;20512;-58
2021/07/05 13:28:46;;;;;;;12.85;5.53;;;;;;;0.01;0.00;59042.03;10280855;28;20049;-58
2021/07/05 13:33:48;;;;;;;8.25;3.72;;;;;;;0.01;0.00;59042.03;10279860;28;20056;-59
2021/07/05 13:38:47;;;;;;;9.85;8.80;;;;;;;0.01;0.00;59042.03;10279684;28;20080;-58
2021/07/05 13:43:50;;;;;;;4.00;2.63;;;;;;;0.01;0.00;59042.03;10280058;28;20049;-57
2021/07/05 13:48:50;;;;;;;3.70;3.28;;;;;;;0.01;0.00;59042.03;10279270;28;20678;-58
2021/07/05 13:53:49;;;;;;;40.83;36.80;;;;;;;0.01;0.00;59042.03;10261492;28;20049;-57
2021/07/05 13:58:50;;;;;;;6.53;5.20;;;;;;;0.01;0.00;59042.03;10279757;28;20136;-57
2021/07/05 14:03:50;;;;;;;8.82;4.03;;;;;;;0.01;0.00;59042.03;10279330;28;20418;-57
2021/07/05 14:08:51;;;;;;;3.88;3.47;;;;;;;0.01;0.00;59042.03;10278589;28;20057;-57
2021/07/05 14:13:54;;;;;;;2.90;2.60;;;;;;;0.01;0.00;59042.03;10279005;28;20044;-58
2021/07/05 14:18:55;;;;;;;12.48;9.75;;;;;;;0.01;0.00;59042.03;10278774;28;20072;-58
2021/07/05 14:23:54;;;;;;;7.10;2.92;;;;;;;0.01;0.00;59042.03;10278007;28;20387;-58
2021/07/05 14:28:53;;;;;;;10.35;4.68;;;;;;;0.01;0.00;59042.03;10283144;28;20028;-57
2021/07/05 14:33:52;;;;;;;4.00;2.60;;;;;;;0.01;0.00;59042.03;10286153;28;20838;-58
2021/07/05 14:38:52;;;;;;;3.78;2.50;;;;;;;0.01;0.00;59042.03;10309715;28;20076;-56
2021/07/05 14:43:51;;;;;;;4.57;2.55;;;;;;;0.01;0.00;59042.03;10312062;28;20319;-55
2021/07/05 14:48:49;;;;;;;9.05;5.82;;;;;;;0.01;0.00;59042.03;10315928;28;20095;-58
2021/07/05 14:53:48;;;;;;;3.47;3.15;;;;;;;0.01;0.00;59042.03;10316432;28;20139;-58
2021/07/05 14:58:48;;;;;;;6.30;3.22;;;;;;;0.01;0.00;59042.03;10314328;28;20052;-57
2021/07/05 15:03:47;;;;;;;4.35;3.13;;;;;;;0.01;0.00;59042.03;10315328;28;20048;-58
2021/07/05 15:08:46;;;;;;;4.35;2.60;;;;;;;0.01;0.00;59042.03;10316339;28;20048;-59
2021/07/05 15:13:44;;;;;;;5.03;4.53;;;;;;;0.01;0.00;59042.03;10316217;28;20067;-58
2021/07/05 15:18:45;;;;;;;11.68;7.57;;;;;;;0.01;0.00;59042.03;10315006;28;20449;-58
2021/07/05 15:23:44;;;;;;;8.73;2.83;;;;;;;0.01;0.00;59042.03;10315236;28;20729;-56
2021/07/05 15:28:43;;;;;;;4.13;3.00;;;;;;;0.01;0.00;59042.03;10291712;28;20079;-57
2021/07/05 15:33:50;;;;;;;3.30;2.80;;;;;;;0.01;0.00;59042.03;10309639;28;20484;-56
2021/07/05 15:38:51;;;;;;;6.00;2.50;;;;;;;0.01;0.00;59042.03;10308667;28;20087;-57
2021/07/05 15:43:50;;;;;;;9.80;3.90;;;;;;;0.01;0.00;59042.03;10315233;28;20084;-53
2021/07/05 15:48:51;;;;;;;6.05;2.90;;;;;;;0.01;0.00;59042.03;10296814;28;20488;-59
2021/07/05 15:53:50;;;;;;;6.57;3.05;;;;;;;0.01;0.00;59042.03;10314423;28;20071;-57
2021/07/05 15:58:49;;;;;;;6.32;4.00;;;;;;;0.01;0.00;59042.03;10314224;28;20068;-56
2021/07/05 16:03:48;;;;;;;4.72;3.20;;;;;;;0.01;0.00;59042.03;10314168;28;20088;-56
2021/07/05 16:08:49;;;;;;;11.63;5.28;;;;;;;0.01;0.00;59042.03;10314834;28;21436;-57
2021/07/05 16:13:50;;;;;;;16.38;7.93;;;;;;;0.01;0.00;59042.03;10313031;28;20044;-57
2021/07/05 16:18:49;;;;;;;8.70;5.13;;;;;;;0.01;0.00;59042.03;10314411;28;20079;-57
2021/07/05 16:23:49;;;;;;;12.38;5.78;;;;;;;0.01;0.00;59042.03;10313740;28;20068;-57
2021/07/05 16:28:52;;;;;;;9.32;6.93;;;;;;;0.01;0.00;59042.03;10311857;28;20044;-58
2021/07/05 16:33:51;;;;;;;13.33;5.23;;;;;;;0.01;0.00;59042.03;10312299;28;20068;-58
2021/07/05 16:38:51;;;;;;;12.00;6.32;;;;;;;0.01;0.00;59042.03;10310819;28;20513;-57
2021/07/05 16:43:51;;;;;;;11.55;6.28;;;;;;;0.01;0.00;59042.03;10312275;28;20088;-58
2021/07/05 16:48:52;;;;;;;10.80;4.80;;;;;;;0.01;0.00;59042.03;10318613;28;20434;-60
2021/07/05 16:53:55;;;;;;;5.40;4.72;;;;;;;0.01;0.00;59042.03;10321925;28;20494;-60
2021/07/05 16:58:54;;;;;;;12.43;4.90;;;;;;;0.01;0.00;59042.03;10320463;28;20044;-60
2021/07/05 17:03:53;;;;;;;7.80;4.40;;;;;;;0.01;0.00;59042.03;10315184;28;20492;-60
2021/07/05 17:08:52;;;;;;;9.88;4.40;;;;;;;0.01;0.00;59042.03;10310023;28;20501;-59
2021/07/05 17:13:52;;;;;;;11.88;4.18;;;;;;;0.01;0.00;59042.03;10318008;28;20064;-59
2021/07/05 17:18:52;;;;;;;8.00;4.43;;;;;;;0.01;0.00;59042.03;10292377;28;20504;-59
2021/07/05 17:23:51;;;;;;;6.72;3.83;;;;;;;0.01;0.00;59042.03;10312735;28;20083;-60
2021/07/05 17:28:50;;;;;;;12.70;5.03;;;;;;;0.01;0.00;59042.03;10320816;28;20060;-59
2021/07/05 17:33:50;;;;;;;5.40;4.90;;;;;;;0.01;0.00;59042.03;10321003;28;20071;-59
2021/07/05 17:38:49;;;;;;;5.90;4.18;;;;;;;0.01;0.00;59042.03;10317901;28;20075;-60
2021/07/05 17:43:50;;;;;;;20.73;5.90;;;;;;;0.01;0.00;59042.03;10316127;28;21354;-60
2021/07/05 17:48:48;;;;;;;6.25;4.70;;;;;;;0.01;0.00;59042.03;10300394;28;20053;-60
2021/07/05 17:53:49;;;;;;;7.07;4.55;;;;;;;0.01;0.00;59042.03;10319164;28;20071;-60
2021/07/05 17:58:47;;;;;;;6.43;5.38;;;;;;;0.01;0.00;59042.03;10316951;28;20115;-58
2021/07/05 18:03:47;;;;;;;6.78;6.07;;;;;;;0.01;0.00;59042.03;10319766;28;20072;-60
2021/07/05 18:08:46;;;;;;;9.32;5.03;;;;;;;0.01;0.00;59042.03;10317584;28;20489;-60
2021/07/05 18:13:47;;;;;;;10.63;5.20;;;;;;;0.01;0.00;59042.03;10317441;28;20398;-59
2021/07/05 18:18:49;;;;;;;19.33;9.95;;;;;;;0.01;0.00;59042.03;10301373;28;20076;-58
2021/07/05 18:23:48;;;;;;;11.02;7.30;;;;;;;0.01;0.00;59042.03;10285196;28;20076;-59
2021/07/05 18:28:48;;;;;;;13.73;6.20;;;;;;;0.01;0.00;59042.03;10298124;28;20064;-59
2021/07/05 18:33:49;;;;;;;16.98;8.00;;;;;;;0.01;0.00;59042.03;10294736;28;20564;-60
2021/07/05 18:38:48;;;;;;;13.13;7.10;;;;;;;0.01;0.00;59042.03;10312070;28;20064;-59
2021/07/05 18:43:48;;;;;;;7.45;5.43;;;;;;;0.01;0.00;59042.03;10312957;28;20095;-58
2021/07/05 18:48:49;;;;;;;10.57;4.87;;;;;;;0.01;0.00;59042.03;10310961;28;20071;-59
2021/07/05 18:53:48;;;;;;;6.97;4.28;;;;;;;0.01;0.00;59042.03;10290927;28;20080;-59
2021/07/05 18:58:49;;;;;;;11.77;5.18;;;;;;;0.01;0.00;59042.03;10311503;28;20084;-59
2021/07/05 19:03:48;;;;;;;7.20;5.00;;;;;;;0.01;0.00;59042.03;10316512;28;20079;-58
2021/07/05 19:08:47;;;;;;;5.25;4.75;;;;;;;0.01;0.00;59042.03;10315116;28;20080;-59
2021/07/05 19:13:46;;;;;;;6.07;5.32;;;;;;;0.01;0.00;59042.03;10316527;28;20048;-59
2021/07/05 19:18:46;;;;;;;7.15;4.57;;;;;;;0.01;0.00;59042.03;10299289;28;20040;-59
2021/07/05 19:23:45;;;;;;;8.35;4.68;;;;;;;0.01;0.00;59042.03;10316961;28;20071;-59
2021/07/05 19:28:44;;;;;;;6.28;4.55;;;;;;;0.01;0.00;59042.03;10311525;28;20068;-58
2021/07/05 19:33:43;;;;;;;6.00;4.13;;;;;;;0.01;0.00;59042.03;10297883;28;20063;-59
2021/07/05 19:38:46;;;;;;;5.30;4.47;;;;;;;0.01;0.00;59042.03;10315812;28;20041;-60
2021/07/05 19:43:45;;;;;;;4.60;4.03;;;;;;;0.01;0.00;59042.03;10314136;28;20084;-59
2021/07/05 19:48:44;;;;;;;5.18;4.13;;;;;;;0.01;0.00;59042.03;10315175;28;20048;-60
2021/07/05 19:53:43;;;;;;;5.80;4.15;;;;;;;0.01;0.00;59042.03;10316063;28;20040;-58
2021/07/05 19:58:43;;;;;;;6.25;3.67;;;;;;;0.01;0.00;59042.03;10315314;28;20037;-60
2021/07/05 20:03:42;;;;;;;5.43;4.10;;;;;;;0.01;0.00;59042.03;10314005;28;20512;-59
2021/07/05 20:08:40;;;;;;;4.50;3.80;;;;;;;0.01;0.00;59042.03;10313560;28;20032;-58
2021/07/05 20:13:39;;;;;;;5.25;4.65;;;;;;;0.01;0.00;59042.03;10313023;28;20430;-59
2021/07/05 20:18:40;;;;;;;9.00;4.43;;;;;;;0.01;0.00;59042.03;10313433;28;20076;-58
2021/07/05 20:23:40;;;;;;;7.22;4.70;;;;;;;0.01;0.00;59042.03;10320171;28;20084;-59
2021/07/05 20:28:40;;;;;;;4.57;4.13;;;;;;;0.01;0.00;59042.03;10321407;28;20091;-57
2021/07/05 20:33:42;;;;;;;5.80;4.25;;;;;;;0.01;0.00;59042.03;10319286;28;20082;-58
2021/07/05 20:38:41;;;;;;;9.10;4.60;;;;;;;0.01;0.00;59042.03;10314426;28;20075;-60
2021/07/05 20:43:40;;;;;;;6.20;3.97;;;;;;;0.01;0.00;59042.03;10321926;28;20087;-58
2021/07/05 20:48:40;;;;;;;4.55;4.05;;;;;;;0.01;0.00;59042.03;10321717;28;20067;-59
2021/07/05 20:53:39;;;;;;;4.72;4.20;;;;;;;0.01;0.00;59042.03;10321897;28;20075;-58
2021/07/05 20:58:38;;;;;;;4.93;4.20;;;;;;;0.01;0.00;59042.03;10322250;28;20037;-59
2021/07/05 21:03:36;;;;;;;4.60;3.83;;;;;;;0.01;0.00;59042.03;10321127;28;20087;-59
2021/07/05 21:08:37;;;;;;;4.10;3.70;;;;;;;0.01;0.00;59042.03;10320317;28;20048;-57
2021/07/05 21:13:35;;;;;;;6.50;4.40;;;;;;;0.01;0.00;59042.03;10319663;28;20079;-59
2021/07/05 21:18:35;;;;;;;5.03;4.50;;;;;;;0.01;0.00;59042.03;10321155;28;20071;-59
2021/07/05 21:23:33;;;;;;;6.72;3.67;;;;;;;0.01;0.00;59042.03;10319622;28;20083;-59
2021/07/05 21:28:33;;;;;;;5.47;4.20;;;;;;;0.01;0.00;59042.03;10321250;28;20036;-59
2021/07/05 21:33:32;;;;;;;4.18;3.55;;;;;;;0.01;0.00;59042.03;10320875;28;20322;-59
2021/07/05 21:38:31;;;;;;;4.95;4.07;;;;;;;0.01;0.00;59042.03;10321169;28;20040;-59
2021/07/05 21:43:30;;;;;;;5.97;4.30;;;;;;;0.01;0.00;59042.03;10320468;28;20474;-59
2021/07/05 21:48:33;;;;;;;7.05;3.80;;;;;;;0.01;0.00;59042.03;10320861;28;20048;-59
2021/07/05 21:53:32;;;;;;;5.53;3.70;;;;;;;0.01;0.00;59042.03;10320480;28;20418;-58
2021/07/05 21:58:31;;;;;;;3.60;3.25;;;;;;;0.01;0.00;59042.03;10320099;28;20045;-59
2021/07/05 22:03:29;;;;;;;5.13;3.55;;;;;;;0.01;0.00;59042.03;10319875;28;20083;-58
2021/07/05 22:08:30;;;;;;;4.68;3.85;;;;;;;0.01;0.00;59042.03;10320120;28;20053;-59
2021/07/05 22:13:29;;;;;;;4.80;3.90;;;;;;;0.01;0.00;59042.03;10318602;28;20045;-59
2021/07/05 22:18:28;;;;;;;4.32;3.25;;;;;;;0.01;0.00;59042.03;10318431;28;20095;-59
2021/07/05 22:23:26;;;;;;;6.03;3.53;;;;;;;0.01;0.00;59042.03;10319106;28;20072;-58
2021/07/05 22:28:29;;;;;;;5.70;3.53;;;;;;;0.01;0.00;59042.03;10319196;28;20044;-59
2021/07/05 22:33:28;;;;;;;3.70;3.40;;;;;;;0.01;0.00;59042.03;10318882;28;20074;-59
2021/07/05 22:38:27;;;;;;;7.35;3.42;;;;;;;0.01;0.00;59042.03;10317871;28;20087;-59
2021/07/05 22:43:27;;;;;;;4.95;3.80;;;;;;;0.01;0.00;59042.03;10317692;28;20080;-59
2021/07/05 22:48:26;;;;;;;4.38;2.92;;;;;;;0.01;0.00;59042.03;10316933;28;20044;-59
2021/07/05 22:53:25;;;;;;;3.33;3.00;;;;;;;0.01;0.00;59042.03;10316997;28;20489;-59
2021/07/05 22:58:23;;;;;;;6.38;3.20;;;;;;;0.01;0.00;59042.03;10317551;28;20406;-59
2021/07/05 23:03:23;;;;;;;4.70;4.28;;;;;;;0.01;0.00;59042.03;10317672;28;20072;-59
2021/07/05 23:08:22;;;;;;;4.70;3.40;;;;;;;0.01;0.00;59042.03;10316728;28;20051;-59
2021/07/05 23:13:21;;;;;;;4.00;3.70;;;;;;;0.01;0.00;59042.03;10314828;28;20079;-58
2021/07/05 23:18:20;;;;;;;7.10;5.10;;;;;;;0.01;0.00;59042.03;10315192;28;20068;-59
2021/07/05 23:23:21;;;;;;;4.80;4.15;;;;;;;0.01;0.00;59042.03;10316986;28;20106;-59
2021/07/05 23:28:20;;;;;;;4.55;3.70;;;;;;;0.01;0.00;59042.03;10316929;28;20052;-59
2021/07/05 23:33:18;;;;;;;5.30;4.18;;;;;;;0.01;0.00;59042.03;10315977;28;20048;-59
2021/07/05 23:38:17;;;;;;;5.38;4.18;;;;;;;0.01;0.00;59042.03;10316677;28;20055;-59
2021/07/05 23:43:18;;;;;;;6.15;4.00;;;;;;;0.01;0.00;59042.03;10316170;28;20048;-59
2021/07/05 23:48:16;;;;;;;4.45;4.05;;;;;;;0.01;0.00;59042.03;10316847;28;20072;-59